CheckWX is a tool to help pilots better visualize weather data.  It is not intended as a substitute for an official pre-flight weather briefing.

13:47:35 UTC

KACK TAF
Nantucket Memorial Airport
Nantucket, Massachusetts, USA
KACK 151126Z 1512/1612 23009KT 6SM BR VCSH BKN003 OVC010 FM151300 24009KT P6SM VCSH OVC005 FM151500 25008KT P6SM SCT005 BKN070 FM152100 22007KT P6SM SCT035 FM160100 25006KT 2SM BR SCT015 FM160500 28005KT P6SM SCT010

Sep-15@
12:00 UTC

Sep-15 @ 12:00 UTC

Sep-15@
13:00 UTC

Sep-15 @ 13:00 UTC

KACK 151126Z 1512/1612 23009KT 6SM BR VCSH BKN003 OVC010

Expired

Wind
  • 230° at 9 KTS
Conditions
Mist
Cloud Levels
  • Broken at 300' AGL
  • Overcast at 1,000' AGL

Sep-15@
13:00 UTC

Sep-15 @ 13:00 UTC

Sep-15@
15:00 UTC

Sep-15 @ 15:00 UTC

FM151300 24009KT P6SM VCSH OVC005

From

From Standard forecast or significant change

Wind
  • 240° at 9 KTS
Cloud Levels
  • Overcast at 500' AGL

Sep-15@
15:00 UTC

Sep-15 @ 15:00 UTC

Sep-15@
21:00 UTC

Sep-15 @ 21:00 UTC

FM151500 25008KT P6SM SCT005 BKN070

From

From Standard forecast or significant change

Wind
  • 250° at 8 KTS
Cloud Levels
  • Scattered at 500' AGL
  • Broken at 7,000' AGL

Sep-15@
21:00 UTC

Sep-15 @ 21:00 UTC

Sep-16@
01:00 UTC

Sep-16 @ 01:00 UTC

FM152100 22007KT P6SM SCT035

From

From Standard forecast or significant change

Wind
  • 220° at 7 KTS
Cloud Levels
  • Scattered at 3,500' AGL

Sep-16@
01:00 UTC

Sep-16 @ 01:00 UTC

Sep-16@
05:00 UTC

Sep-16 @ 05:00 UTC

FM160100 25006KT 2SM BR SCT015

From

From Standard forecast or significant change

Wind
  • 250° at 6 KTS
Conditions
Mist
Cloud Levels
  • Scattered at 1,500' AGL

Sep-16@
05:00 UTC

Sep-16 @ 05:00 UTC

Sep-16@
12:00 UTC

Sep-16 @ 12:00 UTC

FM160500 28005KT P6SM SCT010

From

From Standard forecast or significant change

Wind
  • 280° at 5 KTS
Cloud Levels
  • Scattered at 1,000' AGL